createdAt,value
2022-11-29T00:00:20.777Z,10.97
2022-11-29T00:03:00.130Z,11.17
2022-11-29T00:05:39.173Z,11.10
2022-11-29T00:08:16.692Z,11.40
2022-11-29T00:10:54.170Z,11.73
2022-11-29T00:13:36.038Z,11.53
2022-11-29T00:16:17.644Z,11.20
2022-11-29T00:18:59.006Z,10.83
2022-11-29T00:21:36.052Z,10.60
2022-11-29T00:24:24.381Z,11.47
2022-11-29T00:27:04.456Z,10.83
2022-11-29T00:29:46.517Z,10.70
2022-11-29T00:32:34.373Z,10.70
2022-11-29T00:35:12.268Z,10.97
2022-11-29T00:37:50.554Z,10.43
2022-11-29T00:40:33.995Z,10.50
2022-11-29T00:43:13.599Z,11.33
2022-11-29T00:45:57.565Z,10.40
2022-11-29T00:48:42.857Z,10.77
2022-11-29T00:51:21.921Z,10.37
2022-11-29T00:54:04.968Z,10.47
2022-11-29T00:56:43.464Z,10.93
2022-11-29T00:59:25.198Z,10.60
2022-11-29T01:02:03.120Z,11.10
2022-11-29T01:04:53.441Z,10.80
2022-11-29T01:07:35.446Z,11.03
2022-11-29T01:13:22.400Z,10.27
2022-11-29T01:16:25.017Z,10.63
2022-11-29T01:19:04.263Z,11.27
2022-11-29T01:21:51.736Z,11.17
2022-11-29T01:24:37.130Z,11.20
2022-11-29T01:27:15.618Z,11.07
2022-11-29T01:29:56.994Z,11.50
2022-11-29T01:32:34.144Z,11.83
2022-11-29T01:35:18.821Z,11.83
2022-11-29T01:38:00.192Z,11.50
2022-11-29T01:40:46.354Z,12.50
2022-11-29T01:43:29.449Z,12.57
2022-11-29T01:46:18.912Z,11.10
2022-11-29T01:49:10.669Z,10.70
2022-11-29T01:51:53.078Z,11.73
2022-11-29T01:54:38.691Z,11.87
2022-11-29T01:57:21.678Z,11.63
2022-11-29T02:00:08.914Z,11.47
2022-11-29T02:03:16.110Z,10.87
2022-11-29T02:06:07.102Z,10.93
2022-11-29T02:08:49.438Z,11.07
2022-11-29T02:11:56.427Z,11.50
2022-11-29T02:14:52.265Z,10.40
2022-11-29T02:17:38.381Z,10.27
2022-11-29T02:20:53.982Z,10.30
2022-11-29T02:24:12.473Z,9.63
2022-11-29T02:27:29.565Z,10.73
2022-11-29T02:30:31.630Z,10.10
2022-11-29T02:33:46.428Z,10.80
2022-11-29T02:36:50.611Z,10.73
2022-11-29T02:39:49.721Z,10.47
2022-11-29T02:43:05.790Z,10.97
2022-11-29T02:46:00.572Z,10.50
2022-11-29T02:49:02.529Z,10.90
2022-11-29T02:52:01.664Z,10.77
2022-11-29T02:55:08.013Z,11.07
2022-11-29T02:57:58.991Z,11.17
2022-11-29T03:00:57.764Z,10.87
2022-11-29T03:03:54.287Z,10.60
2022-11-29T03:06:53.135Z,11.43
2022-11-29T03:09:51.172Z,11.13
2022-11-29T03:12:43.640Z,10.20
2022-11-29T03:15:38.080Z,10.63
2022-11-29T03:18:49.252Z,11.10
2022-11-29T03:21:37.888Z,10.53
2022-11-29T03:24:40.544Z,10.80
2022-11-29T03:27:31.039Z,11.17
2022-11-29T03:30:15.206Z,11.10
2022-11-29T03:33:09.254Z,11.07
2022-11-29T03:36:07.691Z,11.93
2022-11-29T03:38:48.472Z,10.67
2022-11-29T03:41:33.225Z,11.17
2022-11-29T03:44:21.620Z,11.23
2022-11-29T03:47:09.333Z,11.80
2022-11-29T03:49:53.711Z,11.17
2022-11-29T03:52:42.164Z,11.73
2022-11-29T03:55:43.546Z,11.20
2022-11-29T03:58:47.879Z,11.77
2022-11-29T04:01:52.801Z,11.03
2022-11-29T04:05:04.458Z,11.60
2022-11-29T04:08:04.241Z,11.30
2022-11-29T04:11:10.145Z,12.27
2022-11-29T04:14:31.026Z,10.80
2022-11-29T04:17:57.308Z,11.57
2022-11-29T04:21:16.921Z,10.83
2022-11-29T04:24:08.798Z,12.20
2022-11-29T04:27:25.718Z,11.33
2022-11-29T04:30:30.688Z,11.60
2022-11-29T04:33:46.166Z,11.97
2022-11-29T04:36:44.568Z,12.47
2022-11-29T04:39:50.530Z,12.43
2022-11-29T04:43:25.887Z,12.07
2022-11-29T04:46:45.264Z,11.77
2022-11-29T04:49:58.293Z,12.37
2022-11-29T04:52:59.525Z,12.13
2022-11-29T04:55:57.161Z,11.93
2022-11-29T04:58:49.121Z,12.70
2022-11-29T05:01:38.499Z,12.03
2022-11-29T05:04:24.205Z,12.03
2022-11-29T05:07:14.003Z,12.13
2022-11-29T05:10:07.696Z,12.47
2022-11-29T05:13:05.659Z,11.83
2022-11-29T05:16:28.355Z,12.00
2022-11-29T05:19:55.504Z,12.27
2022-11-29T05:23:01.616Z,12.37
2022-11-29T05:26:01.661Z,12.10
2022-11-29T05:29:05.559Z,12.37
2022-11-29T05:32:10.433Z,11.27
2022-11-29T05:35:16.056Z,11.77
2022-11-29T05:37:59.186Z,11.37
2022-11-29T05:41:13.134Z,11.33
2022-11-29T05:44:20.980Z,11.23
2022-11-29T05:47:12.081Z,11.57
2022-11-29T05:50:09.159Z,10.97
2022-11-29T05:52:58.259Z,11.63
2022-11-29T05:55:47.296Z,12.23
2022-11-29T05:58:43.556Z,11.23
2022-11-29T06:01:38.960Z,11.77
2022-11-29T06:04:22.838Z,11.87
2022-11-29T06:07:14.336Z,12.10
2022-11-29T06:10:05.468Z,12.13
2022-11-29T06:12:48.281Z,11.70
2022-11-29T06:16:13.699Z,12.03
2022-11-29T06:19:17.976Z,12.07
2022-11-29T06:22:15.918Z,11.20
2022-11-29T06:25:13.257Z,11.47
2022-11-29T06:28:27.310Z,12.10
2022-11-29T06:31:17.504Z,11.43
2022-11-29T06:34:16.755Z,11.97
2022-11-29T06:37:01.044Z,11.03
2022-11-29T06:39:52.910Z,11.37
2022-11-29T06:42:29.918Z,11.00
2022-11-29T06:45:17.949Z,11.53
2022-11-29T06:48:03.928Z,10.93
2022-11-29T06:51:22.975Z,11.50
2022-11-29T06:54:17.699Z,10.33
2022-11-29T06:57:05.043Z,10.07
2022-11-29T07:00:08.424Z,10.67
2022-11-29T07:03:26.070Z,11.03
2022-11-29T07:06:04.698Z,10.63
2022-11-29T07:08:50.120Z,10.33
2022-11-29T07:11:39.771Z,10.40
2022-11-29T07:14:22.467Z,10.50
2022-11-29T07:17:15.539Z,10.43
2022-11-29T07:20:24.588Z,10.77
2022-11-29T07:23:17.773Z,10.30
2022-11-29T07:26:08.520Z,10.17
2022-11-29T07:28:59.306Z,10.13
2022-11-29T07:31:53.784Z,10.60
2022-11-29T07:34:44.143Z,9.90
2022-11-29T07:37:40.410Z,10.53
2022-11-29T07:40:22.353Z,10.80
2022-11-29T07:43:18.321Z,10.00
2022-11-29T07:45:56.295Z,10.33
2022-11-29T07:48:48.199Z,9.90
2022-11-29T07:51:28.950Z,10.77
2022-11-29T07:54:17.999Z,10.00
2022-11-29T07:56:59.898Z,10.33
2022-11-29T07:59:39.378Z,11.07
2022-11-29T08:02:32.625Z,9.93
2022-11-29T08:05:17.240Z,10.50
2022-11-29T08:07:57.983Z,10.47
2022-11-29T08:10:37.513Z,9.43
2022-11-29T08:13:28.184Z,9.67
2022-11-29T08:16:10.774Z,10.00
2022-11-29T08:18:48.815Z,9.90
2022-11-29T08:21:30.986Z,9.83
2022-11-29T08:24:21.172Z,9.67
2022-11-29T08:27:03.610Z,9.50
2022-11-29T08:29:47.229Z,9.77
2022-11-29T08:32:30.031Z,10.57
2022-11-29T08:35:16.362Z,10.47
2022-11-29T08:37:54.379Z,9.93
2022-11-29T08:40:32.861Z,9.77
2022-11-29T08:43:18.831Z,10.23
2022-11-29T08:46:03.743Z,10.33
2022-11-29T08:48:56.786Z,10.00
2022-11-29T08:51:47.695Z,10.23
2022-11-29T08:54:30.219Z,10.07
2022-11-29T09:00:23.161Z,10.33
2022-11-29T09:03:20.405Z,9.47
2022-11-29T09:06:03.120Z,10.97
2022-11-29T09:08:56.192Z,9.97
2022-11-29T09:11:36.537Z,10.30
2022-11-29T09:14:17.448Z,10.47
2022-11-29T09:17:00.204Z,9.60
2022-11-29T09:19:54.620Z,9.77
2022-11-29T09:22:31.652Z,9.87
2022-11-29T09:25:11.855Z,9.77
2022-11-29T09:27:49.853Z,10.17
2022-11-29T09:30:33.377Z,9.67
2022-11-29T09:33:22.402Z,10.80
2022-11-29T09:36:08.074Z,10.37
2022-11-29T09:38:52.546Z,10.03
2022-11-29T09:41:58.191Z,10.30
2022-11-29T09:44:46.721Z,10.80
2022-11-29T09:47:58.334Z,10.60
2022-11-29T09:51:14.638Z,10.57
2022-11-29T09:54:22.849Z,10.03
2022-11-29T09:57:10.998Z,10.20
2022-11-29T09:59:53.818Z,10.00
2022-11-29T10:02:49.413Z,10.37
2022-11-29T10:05:33.194Z,9.83
2022-11-29T10:08:41.150Z,10.10
2022-11-29T10:11:35.361Z,10.17
2022-11-29T10:14:28.197Z,9.77
2022-11-29T10:17:12.974Z,9.97
2022-11-29T10:20:01.071Z,9.87
2022-11-29T10:23:09.605Z,9.13
2022-11-29T10:25:54.213Z,9.77
2022-11-29T10:28:38.166Z,9.93
2022-11-29T10:31:45.042Z,9.77
2022-11-29T10:34:26.233Z,10.30
2022-11-29T10:37:17.360Z,10.57
2022-11-29T10:39:59.263Z,10.13
2022-11-29T10:42:57.322Z,10.10
2022-11-29T10:45:45.751Z,9.77
2022-11-29T10:48:25.493Z,11.00
2022-11-29T10:51:03.925Z,10.53
2022-11-29T10:53:45.158Z,10.30
2022-11-29T10:56:31.274Z,10.60
2022-11-29T10:59:29.111Z,9.17
2022-11-29T11:02:08.739Z,10.43
2022-11-29T11:05:05.444Z,9.10
2022-11-29T11:07:58.342Z,9.43
2022-11-29T11:10:41.166Z,9.23
2022-11-29T11:13:30.464Z,10.17
2022-11-29T11:16:24.365Z,9.57
2022-11-29T11:19:03.530Z,10.23
2022-11-29T11:21:48.044Z,9.53
2022-11-29T11:24:37.757Z,9.53
2022-11-29T11:27:24.825Z,9.73
2022-11-29T11:30:23.171Z,9.00
2022-11-29T11:33:36.100Z,9.77
2022-11-29T11:36:20.410Z,9.20
2022-11-29T11:39:05.451Z,9.47
2022-11-29T11:42:07.473Z,9.63
2022-11-29T11:45:02.325Z,9.17
2022-11-29T11:47:50.221Z,8.80
2022-11-29T11:50:39.299Z,9.47
2022-11-29T11:53:30.278Z,8.87
2022-11-29T11:56:14.654Z,9.03
2022-11-29T11:59:02.461Z,9.23
2022-11-29T12:01:47.603Z,9.00
2022-11-29T12:04:47.300Z,8.53
2022-11-29T12:08:06.814Z,9.10
2022-11-29T12:10:54.084Z,8.70
2022-11-29T12:13:43.648Z,8.60
2022-11-29T12:16:42.966Z,8.53
2022-11-29T12:24:05.576Z,8.53
2022-11-29T12:27:01.530Z,8.03
2022-11-29T12:29:53.205Z,7.17
2022-11-29T12:36:17.850Z,7.57
2022-11-29T12:39:29.416Z,7.47
2022-11-29T12:42:37.750Z,7.70
2022-11-29T12:45:48.519Z,8.03
2022-11-29T12:48:35.817Z,8.27
2022-11-29T12:51:35.846Z,7.07
2022-11-29T12:58:45.462Z,7.47
2022-11-29T13:01:40.291Z,8.17
2022-11-29T13:04:34.989Z,7.43
2022-11-29T13:07:28.261Z,7.30
2022-11-29T13:10:36.265Z,7.40
2022-11-29T13:13:40.752Z,7.23
2022-11-29T13:16:35.597Z,7.33
2022-11-29T13:19:54.142Z,6.80
2022-11-29T13:23:09.163Z,7.60
2022-11-29T13:25:58.623Z,7.30
2022-11-29T13:29:02.448Z,7.87
2022-11-29T13:31:50.226Z,6.57
2022-11-29T13:34:39.249Z,7.00
2022-11-29T13:37:38.542Z,6.63
2022-11-29T13:40:39.264Z,7.10
2022-11-29T13:43:39.073Z,6.07
2022-11-29T13:46:54.699Z,6.83
2022-11-29T13:50:07.481Z,7.37
2022-11-29T13:56:21.364Z,7.20
2022-11-29T13:59:14.414Z,6.57
2022-11-29T14:02:16.150Z,6.80
2022-11-29T14:05:06.078Z,6.13
2022-11-29T14:09:10.404Z,7.23
2022-11-29T14:11:48.450Z,6.40
2022-11-29T14:14:38.594Z,6.77
2022-11-29T14:17:58.063Z,6.40
2022-11-29T14:21:09.825Z,6.93
2022-11-29T14:24:34.645Z,6.47
2022-11-29T14:28:08.413Z,6.93
2022-11-29T14:35:20.342Z,6.80
2022-11-29T14:42:26.602Z,6.30
2022-11-29T14:46:14.086Z,6.30
2022-11-29T14:49:56.815Z,5.90
2022-11-29T15:52:36.690Z,5.40
2022-11-29T15:56:12.964Z,5.87
2022-11-29T15:59:18.286Z,5.33
2022-11-29T16:02:16.487Z,5.57
2022-11-29T16:12:34.790Z,5.13
2022-11-29T16:20:06.025Z,5.37
2022-11-29T16:26:36.395Z,4.97
2022-11-29T16:29:45.194Z,5.00
2022-11-29T16:32:57.077Z,5.20
2022-11-29T16:35:56.523Z,5.00
2022-11-29T16:42:45.120Z,4.80
2022-11-29T16:46:16.837Z,4.63
2022-11-29T16:53:03.691Z,5.30
2022-11-29T16:59:30.182Z,4.97
2022-11-29T17:02:27.928Z,4.83
2022-11-29T17:05:41.627Z,4.60
2022-11-29T17:09:06.705Z,4.97
2022-11-29T17:12:29.705Z,4.60
2022-11-29T17:15:48.712Z,4.93
2022-11-29T17:18:50.507Z,4.90
2022-11-29T17:26:01.829Z,5.53
2022-11-29T17:29:50.486Z,4.97
2022-11-29T17:32:48.297Z,4.83
2022-11-29T17:38:54.744Z,5.17
2022-11-29T17:42:09.815Z,5.40
2022-11-29T17:45:39.527Z,4.73
2022-11-29T17:55:43.349Z,5.30
2022-11-29T17:58:46.423Z,4.97
2022-11-29T18:01:41.960Z,5.13
2022-11-29T18:04:40.318Z,5.37
2022-11-29T18:07:38.365Z,5.33
2022-11-29T18:14:02.946Z,5.07
2022-11-29T18:17:06.005Z,5.87
2022-11-29T18:24:02.419Z,4.90
2022-11-29T18:26:58.108Z,4.63
2022-11-29T18:30:04.090Z,5.00
2022-11-29T18:32:48.200Z,5.00
2022-11-29T18:35:43.512Z,4.80
2022-11-29T18:45:35.276Z,5.53
2022-11-29T18:48:27.137Z,5.20
2022-11-29T18:51:36.150Z,4.70
2022-11-29T18:54:34.967Z,5.27
2022-11-29T18:57:26.050Z,5.43
2022-11-29T19:00:17.557Z,5.40
2022-11-29T19:03:34.658Z,5.43
2022-11-29T19:06:37.097Z,5.00
2022-11-29T19:09:34.562Z,5.37
2022-11-29T19:12:45.957Z,5.00
2022-11-29T19:15:34.152Z,5.47
2022-11-29T19:18:35.048Z,5.03
2022-11-29T19:21:45.589Z,5.30
2022-11-29T19:24:33.108Z,4.97
2022-11-29T19:27:28.545Z,5.43
2022-11-29T19:30:19.915Z,5.20
2022-11-29T19:33:29.712Z,5.33
2022-11-29T19:36:30.198Z,5.23
2022-11-29T19:39:50.279Z,5.10
2022-11-29T19:42:37.489Z,5.20
2022-11-29T19:45:36.230Z,4.77
2022-11-29T19:48:35.064Z,5.27
2022-11-29T19:51:15.217Z,5.60
2022-11-29T19:53:52.481Z,4.73
2022-11-29T19:56:31.458Z,5.10
2022-11-29T19:59:08.203Z,5.20
2022-11-29T20:01:44.905Z,5.33
2022-11-29T20:04:21.477Z,5.43
2022-11-29T20:06:56.954Z,5.20
2022-11-29T20:09:32.663Z,5.63
2022-11-29T20:12:09.515Z,6.40
2022-11-29T20:14:45.044Z,6.33
2022-11-29T20:17:20.421Z,6.13
2022-11-29T20:19:54.742Z,5.97
2022-11-29T20:22:28.994Z,5.80
2022-11-29T20:25:03.788Z,5.90
2022-11-29T20:27:40.417Z,5.77
2022-11-29T20:30:15.957Z,5.83
2022-11-29T20:32:51.488Z,5.47
2022-11-29T20:35:26.267Z,5.93
2022-11-29T20:38:15.907Z,6.07
2022-11-29T20:41:02.926Z,6.47
2022-11-29T20:43:48.461Z,5.80
2022-11-29T20:46:23.889Z,6.20
2022-11-29T20:49:04.743Z,6.07
2022-11-29T20:51:45.024Z,5.83
2022-11-29T20:54:20.306Z,6.27
2022-11-29T20:56:54.480Z,5.70
2022-11-29T20:59:30.285Z,5.90
2022-11-29T21:02:04.500Z,5.60
2022-11-29T21:04:39.250Z,6.07
2022-11-29T21:07:14.214Z,6.17
2022-11-29T21:09:48.550Z,6.07
2022-11-29T21:12:24.429Z,6.13
2022-11-29T21:15:01.303Z,5.77
2022-11-29T21:17:35.767Z,6.53
2022-11-29T21:20:11.283Z,7.37
2022-11-29T21:22:48.747Z,6.63
2022-11-29T21:25:31.981Z,6.20
2022-11-29T21:28:06.929Z,6.63
2022-11-29T21:30:44.067Z,6.53
2022-11-29T21:33:18.458Z,6.57
2022-11-29T21:35:55.703Z,6.17
2022-11-29T21:38:31.139Z,6.20
2022-11-29T21:41:24.026Z,6.50
2022-11-29T21:44:27.817Z,5.90
2022-11-29T21:47:26.939Z,6.47
2022-11-29T21:50:08.289Z,6.40
2022-11-29T21:52:43.271Z,7.17
2022-11-29T21:55:32.037Z,6.97
2022-11-29T21:58:14.247Z,6.50
2022-11-29T22:00:52.787Z,7.03
2022-11-29T22:03:29.220Z,7.17
2022-11-29T22:06:08.156Z,7.23
2022-11-29T22:08:44.002Z,6.80
2022-11-29T22:11:32.263Z,7.10
2022-11-29T22:14:32.663Z,7.20
2022-11-29T22:17:08.604Z,6.97
2022-11-29T22:19:45.058Z,6.77
2022-11-29T22:22:22.457Z,6.67
2022-11-29T22:24:59.960Z,6.37
2022-11-29T22:27:35.755Z,7.00
2022-11-29T22:30:16.256Z,6.73
2022-11-29T22:32:53.698Z,6.77
2022-11-29T22:35:29.982Z,7.73
2022-11-29T22:38:04.394Z,7.53
2022-11-29T22:40:43.379Z,7.53
2022-11-29T22:43:17.638Z,7.13
2022-11-29T22:45:52.522Z,6.90
2022-11-29T22:48:26.760Z,8.13
2022-11-29T22:51:08.405Z,7.77
2022-11-29T22:53:47.401Z,7.33
2022-11-29T22:56:23.123Z,7.37
2022-11-29T22:58:58.582Z,8.00
2022-11-29T23:01:40.751Z,8.00
2022-11-29T23:04:19.560Z,7.20
2022-11-29T23:06:56.809Z,7.10
2022-11-29T23:09:31.866Z,7.33
2022-11-29T23:12:08.133Z,7.57
2022-11-29T23:14:44.565Z,7.43
2022-11-29T23:17:20.275Z,8.13
2022-11-29T23:19:56.984Z,7.73
2022-11-29T23:22:40.552Z,8.13
2022-11-29T23:25:17.052Z,8.23
2022-11-29T23:27:52.693Z,8.43
2022-11-29T23:30:28.749Z,8.13
2022-11-29T23:33:04.345Z,8.10
2022-11-29T23:35:40.619Z,8.00
2022-11-29T23:38:18.837Z,8.53
2022-11-29T23:40:55.519Z,7.93
2022-11-29T23:43:35.293Z,8.03
2022-11-29T23:46:16.383Z,7.77
2022-11-29T23:48:52.124Z,8.10
2022-11-29T23:51:27.792Z,7.83
2022-11-29T23:54:05.826Z,8.70
2022-11-29T23:56:42.326Z,7.73
2022-11-29T23:59:18.869Z,8.53
